Data for 12/03/2006

Time Sea-Level Adjusted Pressure Absolute Pressure Temperature Relative Humidity Dew Point   
(mb) (inHg) (mb) (inHg) (C) (F) (%) (C) (F)
00:05 1031 30.45 860 25.4 -13 8.6 74 -16.8 1.8
00:10 1031 30.45 860 25.4 -12.8 8.9 74 -16.6 2.1
00:15 1031 30.45 860 25.4 -12.7 9.1 74 -16.5 2.4
00:20 1031 30.45 860 25.4 -12.7 9.1 73 -16.5 2.2
00:25 1031 30.45 860 25.4 -13 8.5 75 -16.6 2.1
00:30 1031 30.45 860 25.4 -13.1 8.4 75 -16.7 1.9
00:35 1030 30.42 860 25.4 -13.2 8.3 75 -16.7 1.9
00:40 1030 30.42 860 25.4 -13.1 8.5 75 -16.6 2.2
00:45 1030 30.42 860 25.4 -12.5 9.5 75 -16 3.1
00:50 1030 30.42 860 25.4 -12.4 9.7 73 -16.3 2.7
00:55 1030 30.42 860 25.4 -12.5 9.5 74 -16.2 2.8
01:00 1030 30.42 860 25.4 -12.6 9.4 77 -15.9 3.4
01:05 1030 30.42 860 25.4 -12.6 9.4 78 -15.7 3.7
01:10 1030 30.42 859 25.37 -12.8 9 78 -15.8 3.5
01:15 1030 30.42 860 25.4 -12.6 9.3 77 -15.8 3.6
01:20 1030 30.42 860 25.4 -12.4 9.7 75 -15.9 3.3
01:25 1030 30.42 860 25.4 -12.7 9.1 76 -16.1 3
01:30 1030 30.42 859 25.37 -13 8.7 76 -16.3 2.6
01:35 1030 30.42 859 25.37 -13.3 8.2 77 -16.5 2.2
01:40 1030 30.42 859 25.37 -13.3 8.1 76 -16.7 2
01:45 1030 30.42 859 25.37 -13.4 7.8 76 -16.8 1.8
01:50 1030 30.42 859 25.37 -13.6 7.6 77 -16.8 1.7
01:55 1030 30.42 859 25.37 -13.8 7.3 77 -16.9 1.6
02:00 1030 30.42 859 25.37 -13.8 7.1 78 -17 1.5
02:05 1030 30.42 859 25.37 -13.8 7.3 77 -16.9 1.6
02:10 1030 30.42 859 25.37 -13.7 7.3 77 -17 1.5
02:15 1030 30.42 859 25.37 -13.9 7 78 -17 1.4
02:20 1030 30.42 859 25.37 -14 6.7 78 -17 1.4
02:25 1030 30.42 859 25.37 -14.1 6.6 78 -17.1 1.1
02:30 1030 30.42 859 25.37 -14.7 5.6 82 -17.1 1.3
02:35 1030 30.42 859 25.37 -14.8 5.4 81 -17.4 0.6
02:40 1030 30.42 859 25.37 -15 5.1 82 -17.3 0.8
02:45 1030 30.42 859 25.37 -14.9 5.1 83 -17.2 1
02:50 1030 30.42 859 25.37 -14.4 6.1 81 -17 1.5
02:55 1030 30.42 859 25.37 -13.7 7.3 78 -16.8 1.7
03:00 1030 30.42 859 25.37 -13.9 7 78 -16.9 1.5
03:05 1030 30.42 859 25.37 -14 6.8 79 -17 1.4
03:10 1030 30.42 859 25.37 -14.1 6.6 80 -16.9 1.7
03:15 1030 30.42 859 25.37 -13.9 6.9 79 -16.9 1.7
03:20 1030 30.42 859 25.37 -13.7 7.4 79 -16.5 2.2
03:25 1030 30.42 859 25.37 -13.4 7.9 78 -16.4 2.5
03:30 1030 30.42 859 25.37 -13.4 8 77 -16.5 2.3
03:35 1030 30.42 859 25.37 -13.7 7.4 79 -16.5 2.3
03:40 1030 30.42 859 25.37 -13.7 7.4 81 -16.3 2.6
03:45 1030 30.42 859 25.37 -13.6 7.5 80 -16.4 2.4
03:50 1030 30.42 859 25.37 -13.7 7.4 80 -16.3 2.6
03:55 1030 30.42 859 25.37 -13.5 7.8 81 -16.1 3.1
04:00 1030 30.42 859 25.37 -13.6 7.6 80 -16.3 2.7
04:05 1030 30.42 859 25.37 -13.2 8.2 79 -16.2 2.8
04:10 1030 30.42 859 25.37 -13.1 8.4 78 -16.2 2.8
04:15 1030 30.42 859 25.37 -13.2 8.3 77 -16.3 2.6
04:20 1030 30.42 859 25.37 -13.2 8.2 78 -16.2 2.8
04:25 1030 30.42 859 25.37 -13.2 8.2 78 -16.3 2.7
04:30 1030 30.42 859 25.37 -13.1 8.4 77 -16.3 2.7
04:35 1030 30.42 859 25.37 -13.2 8.3 77 -16.4 2.5
04:40 1030 30.42 859 25.37 -13.4 7.8 78 -16.5 2.3
04:45 1030 30.42 859 25.37 -13.6 7.5 79 -16.5 2.2
04:50 1030 30.42 859 25.37 -13.7 7.4 79 -16.6 2.2
04:55 1030 30.42 859 25.37 -13.7 7.4 81 -16.3 2.7
05:00 1030 30.42 859 25.37 -13.4 7.8 81 -16.1 3
05:05 1030 30.42 859 25.37 -13.2 8.2 80 -16 3.3
05:10 1030 30.42 859 25.37 -13.5 7.8 81 -16.1 3
05:15 1030 30.42 859 25.37 -13.1 8.4 79 -16 3.1
05:20 1030 30.42 859 25.37 -12.9 8.8 77 -16.1 3.1
05:25 1030 30.42 859 25.37 -13 8.6 78 -16.1 3.1
05:30 1030 30.42 859 25.37 -12.8 9.1 76 -16.2 2.9
05:35 1030 30.42 859 25.37 -12.6 9.4 74 -16.2 2.8
05:40 1030 30.42 859 25.37 -13 8.7 77 -16.2 2.9
05:45 1030 30.42 859 25.37 -12.9 8.7 76 -16.3 2.6
05:50 1030 30.42 859 25.37 -13.1 8.4 77 -16.3 2.7
05:55 1030 30.42 859 25.37 -13.3 8.1 78 -16.3 2.7
06:00 1030 30.42 859 25.37 -12.7 9.1 77 -16 3.3
06:05 1030 30.42 859 25.37 -12.7 9.2 78 -15.8 3.6
06:10 1030 30.42 859 25.37 -12.4 9.7 79 -15.4 4.3
06:15 1030 30.42 859 25.37 -12.4 9.7 79 -15.3 4.5
06:20 1030 30.42 859 25.37 -12.2 10.1 78 -15.3 4.5
06:25 1030 30.42 859 25.37 -12 10.3 77 -15.2 4.6
06:30 1030 30.42 860 25.4 -11.8 10.8 77 -15 5
06:35 1030 30.42 860 25.4 -11.5 11.4 75 -15 5
06:40 1031 30.45 860 25.4 -11.3 11.6 75 -14.9 5.1
06:45 1031 30.45 860 25.4 -12.3 9.8 79 -15.2 4.6
06:50 1031 30.45 860 25.4 -12.5 9.5 79 -15.5 4.1
06:55 1031 30.45 860 25.4 -12.1 10.2 77 -15.4 4.3
07:00 1031 30.45 860 25.4 -11.6 11.1 74 -15.4 4.3
07:05 1031 30.45 860 25.4 -11.5 11.4 74 -15.2 4.7
07:10 1031 30.45 860 25.4 -11.3 11.6 75 -15 5
07:15 1031 30.45 860 25.4 -11.1 12 74 -14.9 5.1
07:20 1031 30.45 860 25.4 -10.9 12.4 72 -15 5.1
07:25 1031 30.45 860 25.4 -10.8 12.6 72 -14.9 5.2
07:30 1031 30.45 860 25.4 -10.8 12.6 73 -14.8 5.4
07:35 1031 30.45 860 25.4 -10.8 12.5 75 -14.4 6
07:40 1031 30.45 860 25.4 -10.9 12.5 75 -14.4 6
07:45 1031 30.45 860 25.4 -10.8 12.5 76 -14.3 6.2
07:50 1031 30.45 860 25.4 -10.9 12.5 76 -14.3 6.3
07:55 1031 30.45 860 25.4 -10.9 12.3 75 -14.5 5.9
08:00 1031 30.45 860 25.4 -10.9 12.3 75 -14.6 5.7
08:05 1031 30.45 860 25.4 -10.8 12.6 73 -14.8 5.4
08:10 1031 30.45 860 25.4 -10.7 12.8 72 -14.8 5.4
08:15 1031 30.45 860 25.4 -10.7 12.8 72 -14.8 5.4
08:20 1031 30.45 860 25.4 -10.6 13 72 -14.7 5.6
08:25 1031 30.45 860 25.4 -10.2 13.7 71 -14.5 5.9
08:30 1031 30.45 860 25.4 -10.1 13.8 72 -14.2 6.5
08:35 1031 30.45 860 25.4 -10 14 72 -14.1 6.5
08:40 1031 30.45 860 25.4 -10 14 72 -14.1 6.5
08:45 1031 30.45 860 25.4 -9.9 14.1 72 -14 6.8
08:50 1031 30.45 860 25.4 -9.9 14.1 72 -14 6.8
08:55 1031 30.45 860 25.4 -9.9 14.3 72 -13.9 6.9
09:00 1031 30.45 860 25.4 -9.8 14.4 70 -14.2 6.4
09:05 1031 30.45 860 25.4 -9.6 14.7 71 -13.9 6.9
09:10 1031 30.45 860 25.4 -9.4 15 72 -13.6 7.5
09:15 1031 30.45 860 25.4 -9.3 15.3 69 -14 6.8
09:20 1031 30.45 860 25.4 -9.2 15.5 70 -13.7 7.3
09:25 1031 30.45 860 25.4 -9.2 15.5 72 -13.4 7.8
09:30 1031 30.45 860 25.4 -9.3 15.4 70 -13.7 7.4
09:35 1031 30.45 860 25.4 -8.8 16.1 67 -13.9 7
09:40 1031 30.45 860 25.4 -8.6 16.6 67 -13.7 7.4
09:45 1031 30.45 860 25.4 -8.2 17.3 65 -13.7 7.3
09:50 1031 30.45 860 25.4 -7.8 18 63 -13.6 7.5
09:55 1031 30.45 860 25.4 -7.5 18.5 62 -13.6 7.6
10:00 1031 30.45 860 25.4 -7.4 18.7 62 -13.5 7.7
10:05 1031 30.45 860 25.4 -7.8 18.1 63 -13.5 7.6
10:10 1031 30.45 861 25.43 -7.9 17.8 60 -14.3 6.3
10:15 1031 30.45 861 25.43 -7.8 18 58 -14.7 5.5
10:20 1031 30.45 860 25.4 -7.5 18.5 55 -15 5
10:25 1031 30.45 860 25.4 -7.3 18.9 53 -15.2 4.6
10:30 1031 30.45 860 25.4 -6.9 19.7 52 -15.2 4.7
10:35 1031 30.45 860 25.4 -6.2 20.8 52 -14.5 5.9
10:40 1031 30.45 860 25.4 -5.9 21.4 54 -13.7 7.3
10:45 1031 30.45 860 25.4 -5.9 21.4 52 -14.2 6.4
10:50 1031 30.45 860 25.4 -5.7 21.7 55 -13.5 7.7
10:55 1031 30.45 860 25.4 -5.7 21.7 54 -13.5 7.6
11:00 1031 30.45 860 25.4 -5.8 21.5 56 -13.3 8.1
11:05 1031 30.45 860 25.4 -5.5 22 54 -13.5 7.8
11:10 1031 30.45 860 25.4 -4.9 23.2 52 -13.2 8.2
11:15 1031 30.45 860 25.4 -4.2 24.4 49 -13.5 7.8
11:20 1031 30.45 860 25.4 -3.4 25.8 48 -12.8 8.9
11:25 1031 30.45 860 25.4 -3.7 25.3 50 -12.7 9.1
11:30 1031 30.45 860 25.4 -4.1 24.6 53 -12.3 9.8
11:35 1031 30.45 860 25.4 -4.5 23.9 53 -12.6 9.3
11:40 1031 30.45 860 25.4 -4.6 23.8 52 -13 8.6
11:45 1031 30.45 860 25.4 -4.7 23.5 54 -12.7 9.1
11:50 1031 30.45 860 25.4 -4.8 23.4 52 -13.2 8.2
11:55 1031 30.45 860 25.4 -4.9 23.2 54 -12.9 8.9
12:00 1031 30.45 860 25.4 -4.5 23.8 55 -12.3 9.9
12:05 1031 30.45 860 25.4 -4.4 24.1 55 -12 10.4
12:10 1030 30.42 860 25.4 -4.8 23.3 58 -11.9 10.7
12:15 1030 30.42 860 25.4 -4.1 24.6 56 -11.6 11.2
12:20 1030 30.42 860 25.4 -3.5 25.7 54 -11.5 11.3
12:25 1030 30.42 859 25.37 -3.3 26.1 51 -12 10.4
12:30 1030 30.42 859 25.37 -4 24.7 53 -12.3 9.8
12:35 1030 30.42 859 25.37 -3.6 25.6 50 -12.5 9.4
12:40 1030 30.42 859 25.37 -3.4 25.8 51 -12.1 10.2
12:45 1030 30.42 859 25.37 -3.9 24.9 54 -12 10.4
12:50 1030 30.42 859 25.37 -3.3 26.1 51 -12.2 10.1
12:55 1030 30.42 859 25.37 -2.9 26.7 50 -11.9 10.6
13:00 1030 30.42 859 25.37 -3.6 25.6 54 -11.7 11
13:05 1030 30.42 859 25.37 -4 24.7 55 -11.9 10.7
13:10 1030 30.42 859 25.37 -4.2 24.4 55 -12.1 10.3
13:15 1030 30.42 859 25.37 -4.2 24.4 55 -11.9 10.6
13:20 1030 30.42 859 25.37 -4.1 24.7 53 -12.2 10
13:25 1030 30.42 859 25.37 -4.5 24 56 -11.9 10.6
13:30 1030 30.42 859 25.37 -4.4 24.1 56 -11.9 10.5
13:35 1030 30.42 859 25.37 -4 24.7 53 -12.2 10.1
13:40 1030 30.42 859 25.37 -4.3 24.3 56 -11.8 10.7
13:45 1030 30.42 859 25.37 -4.7 23.6 58 -11.8 10.8
13:50 1030 30.42 859 25.37 -4.7 23.5 58 -11.7 10.9
13:55 1030 30.42 859 25.37 -4.5 23.8 55 -12.2 10
14:00 1030 30.42 859 25.37 -4.9 23.3 58 -11.9 10.6
14:05 1030 30.42 859 25.37 -4.6 23.7 56 -12.1 10.2
14:10 1029 30.39 859 25.37 -4.3 24.2 55 -12 10.3
14:15 1029 30.39 859 25.37 -4.8 23.3 58 -11.9 10.6
14:20 1029 30.39 859 25.37 -4.4 24 55 -12.3 9.9
14:25 1029 30.39 859 25.37 -3.5 25.6 51 -12.3 9.8
14:30 1029 30.39 859 25.37 -3.3 26.1 52 -11.8 10.8
14:35 1029 30.39 859 25.37 -3.1 26.4 51 -11.9 10.6
14:40 1029 30.39 859 25.37 -2.7 27.2 48 -12.3 9.8
14:45 1029 30.39 859 25.37 -2.6 27.4 47 -12.4 9.6
14:50 1029 30.39 858 25.34 -2.6 27.4 42 -13.8 7.1
14:55 1029 30.39 858 25.34 -2.2 28.1 41 -13.8 7.2
15:00 1029 30.39 858 25.34 -1.7 29 38 -14.1 6.6
15:05 1029 30.39 858 25.34 -2.5 27.6 44 -13.2 8.2
15:10 1029 30.39 858 25.34 -2.8 27 45 -13.3 8.1
15:15 1029 30.39 858 25.34 -3.1 26.4 46 -13.3 8.1
15:20 1029 30.39 858 25.34 -3.5 25.6 49 -12.8 9
15:25 1029 30.39 858 25.34 -3.6 25.6 48 -12.9 8.7
15:30 1029 30.39 858 25.34 -3.7 25.3 50 -12.8 9
15:35 1029 30.39 858 25.34 -4.1 24.7 54 -11.9 10.5
15:40 1029 30.39 858 25.34 -4.7 23.5 57 -12 10.3
15:45 1029 30.39 858 25.34 -4.7 23.6 58 -11.8 10.8
15:50 1029 30.39 858 25.34 -4.5 23.9 57 -11.9 10.6
15:55 1029 30.39 858 25.34 -4.6 23.8 55 -12.3 9.8
16:00 1029 30.39 858 25.34 -4.5 23.9 57 -11.7 10.9
16:05 1029 30.39 858 25.34 -4.4 24 56 -11.9 10.6
16:10 1029 30.39 858 25.34 -4.6 23.8 54 -12.5 9.6
16:15 1029 30.39 858 25.34 -4.5 23.9 56 -12.1 10.3
16:20 1029 30.39 858 25.34 -4.4 24.1 56 -11.9 10.6
16:25 1029 30.39 858 25.34 -4.2 24.4 54 -12.2 10.1
16:30 1029 30.39 858 25.34 -4.2 24.4 54 -12.3 9.9
16:35 1029 30.39 858 25.34 -4.3 24.2 54 -12.2 10
16:40 1029 30.39 858 25.34 -4.5 23.9 56 -12 10.3
16:45 1029 30.39 858 25.34 -4.5 24 56 -12 10.4
16:50 1029 30.39 858 25.34 -4.4 24 56 -11.9 10.5
16:55 1029 30.39 858 25.34 -4.5 24 55 -12.1 10.2
17:00 1029 30.39 858 25.34 -4.5 23.9 58 -11.5 11.3
17:05 1029 30.39 858 25.34 -4.3 24.2 59 -11.1 12
17:10 1029 30.39 858 25.34 -4.3 24.3 58 -11.4 11.4
17:15 1029 30.39 858 25.34 -4.5 23.9 59 -11.3 11.7
17:20 1029 30.39 858 25.34 -4.6 23.7 59 -11.3 11.6
17:25 1029 30.39 858 25.34 -4.7 23.6 60 -11.4 11.5
17:30 1028 30.36 858 25.34 -4.7 23.6 58 -11.8 10.8
17:35 1028 30.36 858 25.34 -4.7 23.6 58 -11.7 11
17:40 1028 30.36 858 25.34 -4.6 23.7 56 -12.1 10.2
17:45 1028 30.36 858 25.34 -4.4 24.1 54 -12.2 10
17:50 1028 30.36 858 25.34 -4.2 24.5 56 -11.7 10.9
17:55 1028 30.36 858 25.34 -4.1 24.6 58 -11.2 11.8
18:00 1028 30.36 857 25.31 -4.3 24.3 60 -10.8 12.5
18:05 1028 30.36 857 25.31 -4.3 24.3 62 -10.5 13.1
18:10 1028 30.36 857 25.31 -4.1 24.6 62 -10.3 13.4
18:15 1028 30.36 857 25.31 -4.1 24.6 62 -10.2 13.6
18:20 1028 30.36 857 25.31 -4 24.7 63 -10.1 13.9
18:25 1028 30.36 857 25.31 -3.9 24.9 60 -10.6 13
18:30 1028 30.36 857 25.31 -3.8 25.1 58 -11 12.2
18:35 1028 30.36 857 25.31 -3.9 25 63 -9.9 14.2
18:40 1028 30.36 857 25.31 -4 24.8 61 -10.4 13.2
18:45 1028 30.36 857 25.31 -3.9 24.9 62 -10.1 13.8
18:50 1028 30.36 857 25.31 -4.4 24.2 65 -9.9 14.1
18:55 1028 30.36 857 25.31 -4.6 23.6 65 -10.2 13.7
19:00 1028 30.36 857 25.31 -4.4 24.1 64 -10.2 13.7
19:05 1028 30.36 857 25.31 -4.2 24.5 62 -10.4 13.2
19:10 1028 30.36 857 25.31 -4.1 24.6 64 -9.9 14.1
19:15 1028 30.36 857 25.31 -4.1 24.6 65 -9.8 14.4
19:20 1028 30.36 857 25.31 -4.3 24.3 65 -10 14.1
19:25 1028 30.36 857 25.31 -4.4 24.1 66 -9.8 14.4
19:30 1028 30.36 857 25.31 -4.5 23.9 67 -9.8 14.4
19:35 1028 30.36 857 25.31 -4.7 23.5 69 -9.6 14.6
19:40 1028 30.36 857 25.31 -4.8 23.4 68 -9.9 14.2
19:45 1028 30.36 857 25.31 -4.7 23.5 66 -10.1 13.8
19:50 1028 30.36 857 25.31 -4.7 23.6 64 -10.5 13.2
19:55 1028 30.36 857 25.31 -4.6 23.7 65 -10.2 13.6
20:00 1028 30.36 857 25.31 -4.5 23.9 63 -10.5 13.1
20:05 1028 30.36 857 25.31 -4.5 23.8 63 -10.5 13.1
20:10 1028 30.36 857 25.31 -4.5 23.9 62 -10.6 12.9
20:15 1028 30.36 857 25.31 -4.3 24.3 58 -11.4 11.4
20:20 1028 30.36 857 25.31 -4 24.7 56 -11.5 11.2
20:25 1028 30.36 857 25.31 -3.9 25.1 61 -10.4 13.3
20:30 1028 30.36 857 25.31 -3.8 25.2 61 -10.2 13.7
20:35 1028 30.36 857 25.31 -3.8 25.1 63 -9.8 14.4
20:40 1028 30.36 857 25.31 -4 24.7 65 -9.7 14.6
20:45 1028 30.36 857 25.31 -4.1 24.6 64 -9.9 14.1
20:50 1028 30.36 857 25.31 -4.3 24.2 65 -10 14
20:55 1028 30.36 857 25.31 -4.2 24.4 65 -9.8 14.3
21:00 1028 30.36 857 25.31 -4.4 24.1 64 -10.2 13.7
21:05 1028 30.36 857 25.31 -4.1 24.6 64 -9.8 14.3
21:10 1028 30.36 857 25.31 -3.9 25 67 -9.2 15.4
21:15 1028 30.36 857 25.31 -3.9 24.9 66 -9.3 15.2
21:20 1028 30.36 857 25.31 -4.1 24.7 67 -9.4 15.1
21:25 1028 30.36 857 25.31 -4.1 24.5 67 -9.3 15.3
21:30 1028 30.36 857 25.31 -4.2 24.4 67 -9.5 15
21:35 1028 30.36 857 25.31 -4.3 24.3 66 -9.7 14.5
21:40 1028 30.36 857 25.31 -4.5 23.9 68 -9.6 14.8
21:45 1028 30.36 857 25.31 -4.5 23.9 69 -9.4 15.1
21:50 1028 30.36 857 25.31 -4.3 24.3 68 -9.3 15.2
21:55 1028 30.36 857 25.31 -3.8 25.1 67 -9.1 15.7
22:00 1028 30.36 857 25.31 -3.9 25 70 -8.6 16.5
22:05 1028 30.36 857 25.31 -4 24.8 71 -8.4 16.8
22:10 1027 30.33 857 25.31 -3.9 25 70 -8.5 16.6
22:15 1027 30.33 857 25.31 -3.8 25.1 71 -8.4 16.8
22:20 1028 30.36 857 25.31 -3.7 25.4 70 -8.4 16.8
22:25 1027 30.33 857 25.31 -3.5 25.7 70 -8.3 17.1
22:30 1027 30.33 857 25.31 -3.4 25.9 69 -8.2 17.2
22:35 1027 30.33 857 25.31 -3.5 25.8 68 -8.6 16.5
22:40 1027 30.33 857 25.31 -3.2 26.2 67 -8.5 16.7
22:45 1027 30.33 857 25.31 -3.2 26.2 70 -7.9 17.8
22:50 1027 30.33 857 25.31 -3.4 25.8 71 -8 17.6
22:55 1027 30.33 856 25.28 -3.6 25.5 70 -8.3 17.1
23:00 1027 30.33 856 25.28 -3.5 25.6 68 -8.6 16.6
23:05 1027 30.33 856 25.28 -3.4 25.8 66 -8.9 16
23:10 1027 30.33 856 25.28 -3.2 26.3 65 -8.9 16.1
23:15 1027 30.33 856 25.28 -3 26.6 66 -8.5 16.6
23:20 1027 30.33 856 25.28 -3.1 26.4 66 -8.6 16.6
23:25 1027 30.33 856 25.28 -3.2 26.3 67 -8.5 16.8
23:30 1027 30.33 856 25.28 -3.3 26 69 -8.3 17.1
23:35 1027 30.33 856 25.28 -3.5 25.7 71 -8 17.6
23:40 1027 30.33 856 25.28 -3.5 25.7 71 -8 17.7
23:45 1027 30.33 856 25.28 -3.4 25.8 72 -7.9 17.9
23:50 1027 30.33 856 25.28 -3.3 26 70 -8 17.6
23:55 1027 30.33 856 25.28 -3.2 26.3 69 -8.1 17.4
24:00 1027 30.33 856 25.28 -3 26.6 67 -8.3 17.1